Lake Pleasant, New York
Current Conditions -  °F | °C
As of 6:55 AM on Monday 22 Dec 2014 (Local Time) from KNY0 Reporting Station
Overcast Overcast  
Wind Chill: 26°   Ceiling: 2900
Heat Index: 26°   Visibility: 7mi
Dew Point: 23°   Wind: 0mph
Humidity: 90%   Direction: NA
Pressure: 30.32"   Gusts: NA
Location:  43.47°N, 74.41°W
Report Text: KNY0 221155Z AUTO 00000KT 7SM OVC029 M03/M05 A3032 RMK AO2 T10331048 11028 21035
Loading
Personal Weather Stations






























Interactive Weather Map New forecast layout! Learn more

10-Day Weather Forecast

Advertisements
Track Severe Weather on mobile